createdAt,value
2017-07-15T00:02:26.733Z,89.82
2017-07-15T00:04:56.447Z,89.62
2017-07-15T00:07:26.186Z,89.96
2017-07-15T00:09:56.023Z,90.16
2017-07-15T00:12:26.691Z,89.15
2017-07-15T00:14:56.436Z,89.58
2017-07-15T00:17:26.239Z,90.04
2017-07-15T00:19:56.071Z,89.61
2017-07-15T00:22:26.799Z,89.88
2017-07-15T00:24:56.492Z,89.89
2017-07-15T00:27:26.226Z,90.15
2017-07-15T00:29:56.710Z,89.00
2017-07-15T00:32:26.527Z,89.91
2017-07-15T00:34:56.272Z,89.26
2017-07-15T00:37:26.002Z,90.25
2017-07-15T00:39:56.421Z,89.75
2017-07-15T00:42:26.156Z,90.51
2017-07-15T00:44:56.864Z,90.01
2017-07-15T00:47:27.200Z,90.00
2017-07-15T00:49:57.045Z,88.90
2017-07-15T00:52:27.150Z,89.70
2017-07-15T00:54:56.970Z,90.32
2017-07-15T00:57:27.431Z,90.21
2017-07-15T00:59:57.178Z,89.57
2017-07-15T01:02:26.943Z,90.07
2017-07-15T01:04:56.716Z,90.17
2017-07-15T01:07:26.464Z,90.54
2017-07-15T01:09:56.244Z,90.89
2017-07-15T01:12:26.066Z,90.71
2017-07-15T01:14:55.801Z,90.06
2017-07-15T01:17:25.603Z,89.98
2017-07-15T01:19:55.108Z,90.55
2017-07-15T01:22:24.831Z,90.02
2017-07-15T01:24:54.688Z,89.85
2017-07-15T01:27:24.446Z,90.14
2017-07-15T01:30:00.431Z,90.22
2017-07-15T01:32:33.182Z,90.10
2017-07-15T01:35:03.207Z,89.68
2017-07-15T01:37:33.008Z,90.67
2017-07-15T01:40:03.093Z,90.80
2017-07-15T01:42:33.000Z,91.02
2017-07-15T01:45:02.678Z,90.73
2017-07-15T01:47:32.427Z,90.49
2017-07-15T01:50:03.465Z,91.42
2017-07-15T01:52:33.282Z,91.48
2017-07-15T01:55:02.711Z,91.49
2017-07-15T01:57:31.819Z,90.86
2017-07-15T02:00:01.568Z,91.30
2017-07-15T02:02:31.296Z,91.04
2017-07-15T02:05:01.041Z,90.44
2017-07-15T02:07:30.823Z,91.01
2017-07-15T02:10:00.567Z,91.27
2017-07-15T02:12:30.359Z,91.48
2017-07-15T02:15:00.194Z,91.64
2017-07-15T02:17:30.075Z,90.89
2017-07-15T02:19:59.799Z,91.35
2017-07-15T02:22:29.653Z,89.17
2017-07-15T02:24:59.427Z,89.39
2017-07-15T02:27:29.324Z,88.57
2017-07-15T02:29:59.075Z,89.98
2017-07-15T02:32:32.325Z,90.02
2017-07-15T02:35:03.231Z,90.36
2017-07-15T02:37:33.048Z,89.78
2017-07-15T02:40:03.435Z,90.03
2017-07-15T02:42:33.214Z,89.37
2017-07-15T02:45:02.979Z,89.46
2017-07-15T02:47:33.418Z,89.52
2017-07-15T02:50:03.259Z,90.69
2017-07-15T02:52:33.060Z,90.55
2017-07-15T02:55:03.171Z,90.90
2017-07-15T02:57:33.063Z,90.76
2017-07-15T03:00:02.828Z,90.87
2017-07-15T03:02:32.633Z,90.67
2017-07-15T03:05:02.425Z,89.98
2017-07-15T03:07:32.255Z,89.95
2017-07-15T03:10:02.046Z,89.67
2017-07-15T03:12:31.763Z,90.42
2017-07-15T03:15:01.553Z,89.06
2017-07-15T03:17:30.650Z,89.33
2017-07-15T03:20:00.366Z,90.08
2017-07-15T03:22:30.484Z,89.89
2017-07-15T03:24:59.589Z,88.35
2017-07-15T03:27:35.362Z,89.30
2017-07-15T03:30:04.868Z,88.87
2017-07-15T03:32:34.675Z,89.09
2017-07-15T03:35:05.743Z,88.35
2017-07-15T03:37:35.063Z,88.65
2017-07-15T03:40:04.518Z,89.03
2017-07-15T03:42:34.267Z,87.62
2017-07-15T03:45:04.075Z,88.65
2017-07-15T03:47:33.928Z,88.68
2017-07-15T03:50:03.727Z,89.51
2017-07-15T03:52:33.554Z,88.53
2017-07-15T03:55:03.345Z,89.90
2017-07-15T03:57:33.167Z,89.52
2017-07-15T04:00:02.619Z,90.24
2017-07-15T04:02:32.367Z,89.98
2017-07-15T04:05:02.163Z,88.64
2017-07-15T04:07:32.016Z,89.39
2017-07-15T04:10:01.827Z,89.50
2017-07-15T04:12:31.681Z,89.05
2017-07-15T04:15:02.002Z,88.80
2017-07-15T04:17:32.348Z,89.61
2017-07-15T04:20:02.124Z,88.44
2017-07-15T04:22:31.975Z,88.86
2017-07-15T04:25:02.761Z,87.92
2017-07-15T04:27:32.992Z,88.76
2017-07-15T04:30:02.934Z,88.90
2017-07-15T04:32:33.946Z,88.90
2017-07-15T04:35:04.509Z,89.47
2017-07-15T04:37:36.345Z,89.91
2017-07-15T04:40:07.002Z,90.11
2017-07-15T04:42:36.758Z,89.13
2017-07-15T04:45:07.251Z,88.88
2017-07-15T04:47:37.114Z,88.42
2017-07-15T04:50:06.850Z,88.45
2017-07-15T04:52:36.562Z,88.20
2017-07-15T04:55:06.478Z,89.37
2017-07-15T04:57:36.497Z,88.26
2017-07-15T05:00:06.251Z,88.42
2017-07-15T05:02:36.036Z,89.06
2017-07-15T05:05:05.917Z,88.42
2017-07-15T05:07:36.199Z,88.74
2017-07-15T05:10:06.490Z,88.91
2017-07-15T05:12:36.840Z,90.00
2017-07-15T05:15:07.569Z,88.96
2017-07-15T05:17:37.848Z,88.14
2017-07-15T05:20:07.705Z,87.66
2017-07-15T05:22:37.446Z,88.40
2017-07-15T05:25:07.891Z,88.94
2017-07-15T05:27:37.707Z,87.54
2017-07-15T05:30:07.495Z,87.75
2017-07-15T05:32:37.343Z,87.64
2017-07-15T05:35:07.423Z,87.61
2017-07-15T05:37:37.278Z,88.53
2017-07-15T05:40:07.185Z,87.74
2017-07-15T05:42:37.131Z,87.49
2017-07-15T05:45:07.614Z,88.13
2017-07-15T05:47:38.092Z,88.14
2017-07-15T05:50:08.981Z,87.68
2017-07-15T05:52:40.151Z,87.11
2017-07-15T05:55:10.984Z,88.18
2017-07-15T05:57:42.168Z,87.54
2017-07-15T06:00:19.144Z,86.78
2017-07-15T06:02:49.371Z,87.44
2017-07-15T06:05:19.107Z,88.51
2017-07-15T06:07:48.813Z,87.11
2017-07-15T06:10:19.285Z,85.77
2017-07-15T06:12:50.615Z,86.18
2017-07-15T06:15:20.998Z,87.51
2017-07-15T06:17:51.762Z,86.65
2017-07-15T06:20:26.107Z,86.50
2017-07-15T06:22:56.945Z,85.92
2017-07-15T06:25:29.209Z,85.40
2017-07-15T06:28:00.466Z,84.87
2017-07-15T06:30:30.589Z,85.49
2017-07-15T06:33:00.327Z,85.03
2017-07-15T06:35:30.710Z,83.77
2017-07-15T06:38:02.071Z,85.67
2017-07-15T06:40:32.010Z,84.80
2017-07-15T06:43:01.645Z,84.65
2017-07-15T06:45:31.452Z,84.87
2017-07-15T06:48:01.427Z,85.03
2017-07-15T06:50:31.513Z,84.10
2017-07-15T06:53:01.316Z,84.56
2017-07-15T06:55:32.248Z,85.16
2017-07-15T06:58:02.049Z,84.49
2017-07-15T07:00:32.355Z,84.30
2017-07-15T07:03:02.083Z,84.78
2017-07-15T07:05:31.898Z,84.75
2017-07-15T07:08:01.641Z,84.72
2017-07-15T07:10:31.467Z,84.27
2017-07-15T07:13:01.257Z,83.64
2017-07-15T07:15:31.108Z,84.24
2017-07-15T07:18:00.881Z,84.10
2017-07-15T07:20:30.689Z,84.16
2017-07-15T07:23:00.509Z,84.99
2017-07-15T07:25:30.340Z,84.53
2017-07-15T07:28:00.149Z,85.25
2017-07-15T07:30:30.169Z,83.16
2017-07-15T07:33:00.016Z,84.46
2017-07-15T07:35:29.784Z,84.45
2017-07-15T07:37:59.555Z,83.72
2017-07-15T07:40:29.360Z,82.73
2017-07-15T07:42:59.159Z,83.74
2017-07-15T07:45:28.883Z,83.98
2017-07-15T07:47:58.738Z,82.20
2017-07-15T07:50:28.521Z,81.72
2017-07-15T07:52:58.288Z,82.63
2017-07-15T07:55:28.021Z,82.07
2017-07-15T07:57:57.855Z,81.70
2017-07-15T08:00:27.664Z,81.66
2017-07-15T08:02:57.761Z,81.81
2017-07-15T08:05:29.109Z,80.58
2017-07-15T08:08:01.276Z,80.34
2017-07-15T08:10:31.024Z,80.63
2017-07-15T08:13:02.322Z,80.05
2017-07-15T08:15:32.256Z,79.73
2017-07-15T08:18:02.485Z,79.68
2017-07-15T08:20:32.305Z,81.56
2017-07-15T08:23:02.093Z,79.94
2017-07-15T08:25:31.887Z,79.35
2017-07-15T08:28:01.647Z,78.31
2017-07-15T08:30:31.432Z,78.91
2017-07-15T08:33:01.257Z,78.13
2017-07-15T08:35:31.020Z,76.86
2017-07-15T08:38:00.844Z,76.31
2017-07-15T08:40:30.730Z,76.06
2017-07-15T08:43:00.595Z,76.62
2017-07-15T08:45:30.869Z,75.70
2017-07-15T08:48:00.605Z,75.43
2017-07-15T08:50:30.402Z,74.99
2017-07-15T08:53:00.724Z,73.99
2017-07-15T08:55:30.759Z,72.21
2017-07-15T08:58:01.093Z,70.68
2017-07-15T09:00:31.727Z,68.99
2017-07-15T09:03:01.708Z,68.99
2017-07-15T09:05:31.382Z,68.15
2017-07-15T09:08:01.184Z,68.12
2017-07-15T09:10:30.988Z,67.94
2017-07-15T09:13:00.757Z,67.50
2017-07-15T09:15:30.503Z,66.54
2017-07-15T09:18:00.240Z,65.54
2017-07-15T09:20:30.110Z,64.40
2017-07-15T09:22:59.837Z,63.90
2017-07-15T09:25:29.606Z,64.74
2017-07-15T09:27:59.377Z,64.50
2017-07-15T09:30:29.460Z,63.17
2017-07-15T09:32:59.196Z,62.39
2017-07-15T09:35:28.960Z,61.68
2017-07-15T09:37:58.769Z,60.36
2017-07-15T09:40:28.555Z,58.60
2017-07-15T09:42:58.422Z,58.28
2017-07-15T09:45:29.111Z,58.40
2017-07-15T09:47:58.860Z,58.77
2017-07-15T09:50:28.614Z,60.71
2017-07-15T09:52:58.360Z,61.45
2017-07-15T09:55:28.167Z,61.68
2017-07-15T09:57:58.476Z,61.71
2017-07-15T10:00:28.252Z,63.51
2017-07-15T10:02:58.023Z,63.47
2017-07-15T10:05:27.720Z,64.17
2017-07-15T10:07:57.488Z,64.41
2017-07-15T10:10:27.182Z,63.42
2017-07-15T10:12:56.900Z,63.60
2017-07-15T10:15:26.695Z,62.30
2017-07-15T10:17:56.386Z,62.91
2017-07-15T10:20:26.159Z,61.49
2017-07-15T10:22:55.931Z,61.36
2017-07-15T10:25:25.692Z,60.94
2017-07-15T10:27:55.555Z,61.98
2017-07-15T10:30:25.263Z,60.68
2017-07-15T10:32:55.000Z,62.20
2017-07-15T10:35:24.778Z,61.17
2017-07-15T10:37:54.557Z,61.87
2017-07-15T10:40:24.434Z,60.94
2017-07-15T10:42:54.139Z,61.02
2017-07-15T10:45:23.932Z,61.60
2017-07-15T10:47:53.765Z,60.56
2017-07-15T10:50:24.187Z,59.13
2017-07-15T10:52:54.007Z,59.61
2017-07-15T10:55:23.810Z,58.23
2017-07-15T10:57:53.717Z,57.67
2017-07-15T11:00:23.853Z,57.40
2017-07-15T11:02:54.331Z,57.38
2017-07-15T11:05:24.203Z,56.75
2017-07-15T11:07:53.971Z,56.14
2017-07-15T11:10:25.254Z,56.75
2017-07-15T11:12:57.899Z,56.02
2017-07-15T11:15:29.223Z,56.38
2017-07-15T11:18:02.600Z,56.81
2017-07-15T11:23:21.858Z,58.42
2017-07-15T11:25:52.287Z,58.94
2017-07-15T11:28:22.102Z,59.84
2017-07-15T11:30:51.916Z,60.96
2017-07-15T11:33:23.082Z,60.38
2017-07-15T11:35:52.768Z,60.59
2017-07-15T11:38:22.542Z,60.36
2017-07-15T11:40:52.272Z,61.27
2017-07-15T11:43:22.082Z,61.54
2017-07-15T11:45:51.848Z,61.03
2017-07-15T11:48:22.172Z,60.81
2017-07-15T11:50:52.422Z,60.46
2017-07-15T11:53:22.177Z,60.99
2017-07-15T11:55:51.890Z,60.16
2017-07-15T11:58:21.624Z,60.01
2017-07-15T12:00:51.411Z,60.17
2017-07-15T12:03:21.232Z,60.22
2017-07-15T12:05:50.928Z,60.57
2017-07-15T12:08:20.616Z,59.78
2017-07-15T12:10:50.393Z,59.58
2017-07-15T12:13:20.177Z,59.14
2017-07-15T12:15:55.061Z,59.04
2017-07-15T12:18:24.809Z,60.50
2017-07-15T12:20:54.352Z,60.07
2017-07-15T12:23:25.998Z,59.81
2017-07-15T12:25:55.817Z,60.04
2017-07-15T12:28:25.901Z,60.77
2017-07-15T12:30:56.307Z,58.42
2017-07-15T12:33:27.147Z,58.39
2017-07-15T12:35:57.315Z,58.23
2017-07-15T12:38:28.357Z,60.13
2017-07-15T12:40:59.297Z,59.17
2017-07-15T12:43:31.100Z,58.56
2017-07-15T12:46:03.924Z,58.39
2017-07-15T12:48:35.818Z,57.86
2017-07-15T12:51:06.677Z,57.51
2017-07-15T12:53:38.317Z,56.84
2017-07-15T12:56:09.172Z,57.65
2017-07-15T12:58:38.934Z,58.07
2017-07-15T13:01:08.733Z,58.02
2017-07-15T13:03:38.494Z,57.81
2017-07-15T13:06:08.234Z,57.82
2017-07-15T13:08:38.660Z,57.31
2017-07-15T13:11:08.492Z,57.54
2017-07-15T13:13:38.268Z,56.70
2017-07-15T13:16:08.066Z,56.09
2017-07-15T13:18:41.312Z,56.22
2017-07-15T13:21:10.997Z,55.88
2017-07-15T13:23:40.742Z,56.14
2017-07-15T13:26:10.501Z,55.67
2017-07-15T13:28:40.952Z,55.53
2017-07-15T13:31:10.662Z,56.50
2017-07-15T13:33:40.391Z,57.77
2017-07-15T13:36:10.233Z,56.60
2017-07-15T13:38:40.017Z,56.04
2017-07-15T13:41:09.811Z,55.48
2017-07-15T13:43:39.568Z,54.60
2017-07-15T13:46:09.259Z,55.57
2017-07-15T13:48:39.123Z,55.90
2017-07-15T13:51:08.882Z,55.63
2017-07-15T13:53:38.599Z,54.80
2017-07-15T13:56:08.324Z,54.76
2017-07-15T13:58:38.099Z,54.49
2017-07-15T14:01:07.896Z,54.95
2017-07-15T14:03:37.750Z,54.94
2017-07-15T14:06:07.474Z,54.11
2017-07-15T14:08:37.193Z,54.26
2017-07-15T14:11:06.987Z,53.71
2017-07-15T14:13:37.380Z,53.47
2017-07-15T14:16:07.128Z,54.33
2017-07-15T14:18:36.864Z,55.22
2017-07-15T14:21:06.577Z,55.26
2017-07-15T14:23:36.284Z,55.00
2017-07-15T14:26:06.039Z,55.23
2017-07-15T14:28:35.814Z,54.48
2017-07-15T14:31:05.551Z,53.71
2017-07-15T14:33:35.343Z,54.04
2017-07-15T14:36:04.724Z,53.69
2017-07-15T14:38:34.544Z,54.02
2017-07-15T14:41:04.283Z,53.31
2017-07-15T14:43:33.993Z,53.02
2017-07-15T14:46:03.724Z,53.61
2017-07-15T14:48:33.425Z,54.52
2017-07-15T14:51:03.168Z,54.26
2017-07-15T14:53:36.056Z,53.61
2017-07-15T14:56:05.788Z,53.86
2017-07-15T14:58:35.559Z,53.87
2017-07-15T15:01:05.344Z,54.18
2017-07-15T15:03:35.102Z,54.23
2017-07-15T15:06:04.900Z,54.23
2017-07-15T15:08:34.657Z,53.95
2017-07-15T15:11:04.470Z,53.91
2017-07-15T15:13:34.233Z,53.45
2017-07-15T15:16:04.827Z,53.92
2017-07-15T15:18:34.580Z,55.40
2017-07-15T15:21:04.351Z,54.29
2017-07-15T15:23:34.118Z,52.57
2017-07-15T15:26:03.834Z,52.02
2017-07-15T15:28:33.551Z,52.67
2017-07-15T15:31:03.874Z,51.73
2017-07-15T15:33:33.609Z,49.89
2017-07-15T15:36:03.420Z,50.48
2017-07-15T15:38:33.671Z,49.67
2017-07-15T15:41:03.422Z,49.48
2017-07-15T15:43:33.187Z,50.25
2017-07-15T15:46:02.995Z,51.53
2017-07-15T15:48:32.703Z,51.55
2017-07-15T15:51:02.545Z,51.82
2017-07-15T15:53:38.462Z,51.83
2017-07-15T15:56:08.196Z,52.22
2017-07-15T15:58:38.360Z,51.94
2017-07-15T16:01:08.169Z,51.69
2017-07-15T16:03:37.936Z,52.77
2017-07-15T16:06:07.737Z,52.31
2017-07-15T16:08:37.507Z,51.20
2017-07-15T16:11:07.280Z,51.80
2017-07-15T16:13:37.321Z,50.95
2017-07-15T16:16:07.115Z,50.60
2017-07-15T16:18:36.837Z,51.50
2017-07-15T16:21:06.667Z,51.81
2017-07-15T16:23:36.534Z,51.90
2017-07-15T16:26:06.899Z,52.34
2017-07-15T16:28:36.679Z,52.12
2017-07-15T16:31:06.399Z,52.37
2017-07-15T16:33:36.163Z,52.12
2017-07-15T16:36:05.923Z,52.27
2017-07-15T16:38:35.700Z,52.59
2017-07-15T16:41:06.299Z,52.81
2017-07-15T16:43:36.151Z,53.01
2017-07-15T16:46:05.950Z,53.50
2017-07-15T16:48:36.223Z,54.60
2017-07-15T16:51:06.511Z,53.56
2017-07-15T16:53:36.187Z,53.64
2017-07-15T16:56:06.007Z,53.12
2017-07-15T16:58:35.740Z,53.18
2017-07-15T17:01:05.811Z,53.70
2017-07-15T17:03:35.520Z,53.53
2017-07-15T17:06:04.927Z,54.02
2017-07-15T17:08:40.109Z,54.93
2017-07-15T17:11:11.731Z,55.20
2017-07-15T17:13:41.684Z,54.84
2017-07-15T17:16:12.207Z,55.16
2017-07-15T17:18:44.606Z,55.59
2017-07-15T17:21:15.346Z,55.91
2017-07-15T17:23:46.984Z,56.41
2017-07-15T17:26:19.332Z,56.34
2017-07-15T17:28:50.182Z,56.24
2017-07-15T17:31:20.904Z,57.02
2017-07-15T17:33:52.998Z,56.97
2017-07-15T17:36:24.650Z,55.32
2017-07-15T17:38:57.227Z,55.18
2017-07-15T17:41:28.703Z,55.43
2017-07-15T17:44:00.455Z,55.70
2017-07-15T17:46:31.483Z,56.05
2017-07-15T17:49:03.957Z,54.81
2017-07-15T17:51:37.925Z,54.68
2017-07-15T17:54:08.897Z,54.88
2017-07-15T17:56:39.687Z,55.29
2017-07-15T17:59:11.070Z,54.62
2017-07-15T18:01:43.789Z,55.20
2017-07-15T18:04:15.130Z,55.46
2017-07-15T18:06:45.160Z,54.86
2017-07-15T18:09:17.285Z,55.20
2017-07-15T18:11:48.548Z,55.94
2017-07-15T18:14:20.295Z,56.66
2017-07-15T18:16:52.642Z,57.13
2017-07-15T18:19:24.352Z,56.68
2017-07-15T18:21:56.085Z,57.70
2017-07-15T18:24:28.295Z,59.50
2017-07-15T18:26:58.703Z,59.91
2017-07-15T18:29:29.852Z,58.11
2017-07-15T18:32:04.847Z,57.73
2017-07-15T18:34:37.608Z,57.57
2017-07-15T18:37:09.209Z,58.19
2017-07-15T18:39:41.733Z,58.43
2017-07-15T18:42:12.433Z,58.02
2017-07-15T18:44:42.160Z,58.19
2017-07-15T18:47:11.898Z,58.15
2017-07-15T18:49:41.543Z,58.32
2017-07-15T18:52:11.305Z,59.00
2017-07-15T18:54:43.364Z,58.81
2017-07-15T18:57:15.510Z,59.71
2017-07-15T18:59:46.164Z,60.97
2017-07-15T19:02:16.350Z,61.38
2017-07-15T19:04:47.679Z,63.44
2017-07-15T19:07:19.027Z,65.51
2017-07-15T19:09:50.378Z,65.70
2017-07-15T19:12:21.298Z,66.33
2017-07-15T19:14:53.333Z,66.80
2017-07-15T19:17:24.829Z,66.35
2017-07-15T19:19:55.036Z,67.89
2017-07-15T19:22:25.281Z,68.42
2017-07-15T19:24:55.804Z,68.25
2017-07-15T19:27:27.268Z,68.37
2017-07-15T19:29:57.327Z,67.71
2017-07-15T19:32:27.736Z,68.79
2017-07-15T19:34:57.791Z,68.92
2017-07-15T19:37:28.465Z,69.58
2017-07-15T19:39:59.211Z,69.49
2017-07-15T19:42:29.439Z,69.79
2017-07-15T19:45:00.018Z,69.09
2017-07-15T19:47:31.523Z,65.78
2017-07-15T19:50:01.852Z,63.48
2017-07-15T19:52:32.541Z,62.71
2017-07-15T19:55:03.096Z,62.71
2017-07-15T19:57:33.959Z,62.90
2017-07-15T20:00:04.734Z,62.83
2017-07-15T20:02:35.096Z,63.21
2017-07-15T20:05:05.251Z,63.31
2017-07-15T20:07:35.443Z,64.36
2017-07-15T20:10:05.698Z,64.20
2017-07-15T20:12:36.024Z,64.83
2017-07-15T20:15:06.363Z,65.23
2017-07-15T20:17:36.690Z,65.22
2017-07-15T20:20:07.062Z,65.45
2017-07-15T20:22:36.827Z,65.94
2017-07-15T20:25:07.207Z,65.94
2017-07-15T20:27:37.377Z,65.97
2017-07-15T20:30:08.657Z,66.50
2017-07-15T20:32:39.874Z,66.59
2017-07-15T20:35:11.215Z,67.00
2017-07-15T20:37:41.392Z,67.18
2017-07-15T20:40:11.450Z,67.08
2017-07-15T20:42:41.592Z,67.73
2017-07-15T20:45:11.818Z,67.69
2017-07-15T20:47:41.996Z,67.86
2017-07-15T20:50:12.211Z,67.98
2017-07-15T20:53:02.134Z,68.37
2017-07-15T20:55:43.551Z,68.35
2017-07-15T20:58:14.034Z,68.59
2017-07-15T21:00:43.749Z,69.10
2017-07-15T21:03:13.481Z,70.52
2017-07-15T21:05:43.096Z,70.87
2017-07-15T21:08:12.823Z,71.98
2017-07-15T21:10:42.523Z,72.00
2017-07-15T21:13:12.360Z,72.87
2017-07-15T21:15:42.156Z,72.31
2017-07-15T21:18:11.877Z,72.83
2017-07-15T21:20:41.712Z,73.30
2017-07-15T21:23:11.509Z,73.71
2017-07-15T21:25:41.358Z,73.53
2017-07-15T21:28:11.136Z,73.23
2017-07-15T21:30:41.565Z,73.45
2017-07-15T21:33:11.263Z,73.35
2017-07-15T21:35:41.004Z,74.07
2017-07-15T21:38:12.389Z,74.23
2017-07-15T21:40:43.278Z,74.99
2017-07-15T21:43:13.829Z,75.01
2017-07-15T21:45:43.638Z,75.01
2017-07-15T21:48:13.426Z,75.25
2017-07-15T21:50:43.263Z,76.11
2017-07-15T21:53:12.989Z,76.46
2017-07-15T21:55:42.740Z,76.32
2017-07-15T21:58:12.140Z,76.48
2017-07-15T22:00:41.907Z,76.53
2017-07-15T22:03:11.286Z,77.41
2017-07-15T22:05:40.292Z,77.32
2017-07-15T22:08:10.068Z,77.89
2017-07-15T22:10:39.877Z,76.93
2017-07-15T22:13:10.427Z,76.58
2017-07-15T22:15:40.200Z,76.28
2017-07-15T22:18:10.010Z,76.87
2017-07-15T22:20:39.752Z,76.87
2017-07-15T22:23:09.556Z,76.52
2017-07-15T22:25:39.408Z,76.90
2017-07-15T22:28:09.107Z,78.10
2017-07-15T22:30:38.872Z,77.78
2017-07-15T22:33:08.608Z,78.45
2017-07-15T22:35:38.383Z,78.05
2017-07-15T22:38:08.262Z,78.18
2017-07-15T22:40:38.044Z,78.12
2017-07-15T22:43:07.739Z,77.71
2017-07-15T22:45:37.478Z,77.95
2017-07-15T22:48:07.267Z,78.72
2017-07-15T22:50:37.032Z,79.08
2017-07-15T22:53:06.819Z,79.09
2017-07-15T22:55:36.539Z,79.26
2017-07-15T22:58:05.913Z,79.91
2017-07-15T23:00:35.673Z,79.30
2017-07-15T23:03:06.060Z,79.74
2017-07-15T23:05:35.783Z,79.79
2017-07-15T23:08:05.502Z,80.47
2017-07-15T23:10:35.790Z,80.70
2017-07-15T23:13:06.562Z,80.03
2017-07-15T23:15:36.412Z,80.46
2017-07-15T23:18:06.184Z,79.35
2017-07-15T23:20:35.930Z,79.41
2017-07-15T23:23:05.762Z,80.25
2017-07-15T23:25:35.547Z,80.32
2017-07-15T23:28:05.344Z,80.07
2017-07-15T23:30:35.956Z,80.51
2017-07-15T23:33:05.750Z,81.61
2017-07-15T23:35:35.523Z,82.28
2017-07-15T23:38:05.268Z,81.89
2017-07-15T23:40:35.089Z,81.83
2017-07-15T23:43:05.441Z,81.86
2017-07-15T23:45:35.300Z,81.44
2017-07-15T23:48:05.050Z,81.99
2017-07-15T23:50:34.868Z,81.86
2017-07-15T23:53:04.732Z,82.31
2017-07-15T23:55:34.480Z,82.29
2017-07-15T23:58:04.351Z,83.10
